Time;durP1;ratioP1;P1;durP2;ratioP2;P2;SDS_P1;SDS_P2;PMS_P1;PMS_P2;Temp;Humidity;BMP_temperature;BMP_pressure;BME280_temperature;BME280_humidity;BME280_pressure;Samples;Min_cycle;Max_cycle;Signal;HPM_P1;HPM_P2
2023/11/25 00:01:19;;;;;;;5.15;1.35;;;;;;;3.58;100.00;101350.38;5090002;28;20024;-35
2023/11/25 00:03:45;;;;;;;7.83;1.60;;;;;;;3.55;100.00;101356.06;5089861;28;20020;-35
2023/11/25 00:06:10;;;;;;;3.60;1.50;;;;;;;3.53;100.00;101343.88;5089553;28;20031;-35
2023/11/25 00:08:36;;;;;;;6.50;1.30;;;;;;;3.51;100.00;101325.31;5079311;28;20031;-35
2023/11/25 00:11:01;;;;;;;5.53;1.43;;;;;;;3.47;100.00;101312.50;5077120;28;20016;-35
2023/11/25 00:13:27;;;;;;;6.57;1.40;;;;;;;3.45;100.00;101309.97;5076193;28;20032;-35
2023/11/25 00:15:52;;;;;;;4.63;1.30;;;;;;;3.51;100.00;101319.13;5076043;28;20028;-35
2023/11/25 00:18:18;;;;;;;5.65;1.50;;;;;;;3.41;100.00;101315.84;5076079;28;20255;-35
2023/11/25 00:20:43;;;;;;;4.50;1.40;;;;;;;3.36;100.00;101321.69;5076098;28;20024;-35
2023/11/25 00:23:08;;;;;;;5.63;1.52;;;;;;;3.38;100.00;101326.91;5076026;28;20028;-35
2023/11/25 00:25:34;;;;;;;6.47;1.50;;;;;;;3.25;100.00;101304.19;5076769;28;20024;-35
2023/11/25 00:27:59;;;;;;;9.40;1.67;;;;;;;3.31;100.00;101316.88;5076550;28;20030;-35
2023/11/25 00:30:25;;;;;;;6.38;1.65;;;;;;;3.33;100.00;101312.19;5075653;28;20020;-35
2023/11/25 00:32:51;;;;;;;8.83;1.90;;;;;;;3.29;100.00;101316.22;5075893;28;20024;-35
2023/11/25 00:35:16;;;;;;;;;;;;;;;3.33;100.00;101317.53;5076780;28;20531;-35
2023/11/25 00:37:42;;;;;;;8.50;2.17;;;;;;;3.13;100.00;101297.56;5075307;28;20011;-35
2023/11/25 00:40:10;;;;;;;7.80;1.75;;;;;;;3.25;100.00;101325.59;5075702;28;20024;-35
2023/11/25 00:42:36;;;;;;;8.50;2.10;;;;;;;3.25;100.00;101316.72;5076512;28;20520;-35
2023/11/25 00:45:02;;;;;;;9.75;2.15;;;;;;;3.23;100.00;101319.59;5075833;28;20051;-35
2023/11/25 00:47:27;;;;;;;6.43;2.00;;;;;;;3.22;100.00;101325.94;5075597;28;20024;-35
2023/11/25 00:49:53;;;;;;;8.73;2.53;;;;;;;3.25;100.00;101320.25;5075226;28;20547;-35
2023/11/25 00:52:19;;;;;;;9.15;2.13;;;;;;;3.24;100.00;101318.56;5075864;28;20021;-35
2023/11/25 00:54:44;;;;;;;9.53;2.20;;;;;;;3.24;100.00;101321.25;5075203;28;20077;-35
2023/11/25 00:57:10;;;;;;;11.53;2.30;;;;;;;3.26;100.00;101318.41;5076280;28;20302;-35
2023/11/25 00:59:35;;;;;;;10.40;2.33;;;;;;;3.26;100.00;101316.56;5075388;28;20401;-35
2023/11/25 01:02:01;;;;;;;10.53;2.37;;;;;;;3.25;100.00;101316.72;5075016;28;20090;-35
2023/11/25 01:04:26;;;;;;;10.30;2.22;;;;;;;3.26;100.00;101327.25;5075184;28;20028;-35
2023/11/25 01:06:51;;;;;;;10.60;2.75;;;;;;;3.25;100.00;101317.56;5075251;28;20032;-35
2023/11/25 01:09:19;;;;;;;11.43;2.63;;;;;;;3.22;100.00;101325.94;5075409;28;20021;-35
2023/11/25 01:11:45;;;;;;;10.82;2.25;;;;;;;3.21;100.00;101332.28;5075102;28;20031;-35
2023/11/25 01:14:10;;;;;;;8.05;2.17;;;;;;;3.20;100.00;101333.28;5075325;28;20024;-35
2023/11/25 01:16:36;;;;;;;9.00;1.87;;;;;;;3.18;100.00;101337.97;5075531;28;20128;-35
2023/11/25 01:19:01;;;;;;;6.57;1.90;;;;;;;3.15;100.00;101340.97;5073947;28;20025;-35
2023/11/25 01:21:27;;;;;;;10.13;2.28;;;;;;;3.17;100.00;101349.66;5074684;28;20104;-35
2023/11/25 01:23:52;;;;;;;8.53;2.40;;;;;;;3.18;100.00;101345.16;5075123;28;20025;-35
2023/11/25 01:26:17;;;;;;;12.57;2.40;;;;;;;3.14;100.00;101344.66;5075052;28;20518;-35
2023/11/25 01:28:43;;;;;;;7.87;2.27;;;;;;;3.15;100.00;101348.16;5074527;28;20023;-35
2023/11/25 01:31:10;;;;;;;10.82;2.47;;;;;;;3.14;100.00;101342.00;5075045;28;20210;-40
2023/11/25 01:33:36;;;;;;;6.53;2.30;;;;;;;3.16;100.00;101344.47;5074559;28;20020;-35
2023/11/25 01:36:02;;;;;;;8.10;2.28;;;;;;;3.15;100.00;101345.50;5075037;28;20028;-35
2023/11/25 01:38:27;;;;;;;7.45;2.17;;;;;;;3.05;100.00;101332.31;5074267;28;20480;-35
2023/11/25 01:40:55;;;;;;;6.80;1.80;;;;;;;3.16;100.00;101350.66;5075089;28;20055;-35
2023/11/25 01:43:23;;;;;;;7.32;1.83;;;;;;;3.21;100.00;101340.28;5074385;28;20040;-35
2023/11/25 01:45:50;;;;;;;8.57;1.90;;;;;;;3.18;100.00;101319.28;5075199;28;20027;-35
2023/11/25 01:48:16;;;;;;;7.82;1.77;;;;;;;3.27;100.00;101333.41;5074312;28;20043;-35
2023/11/25 01:50:45;;;;;;;7.82;1.63;;;;;;;3.32;100.00;101323.91;5074340;28;20024;-35
2023/11/25 01:53:13;;;;;;;8.35;2.30;;;;;;;3.40;100.00;101339.06;5074209;28;20463;-35
2023/11/25 01:55:39;;;;;;;6.32;1.65;;;;;;;3.44;100.00;101344.91;5074316;28;20131;-35
2023/11/25 01:58:04;;;;;;;10.02;2.40;;;;;;;3.48;100.00;101341.72;5075023;28;20123;-35
2023/11/25 02:00:30;;;;;;;8.63;1.87;;;;;;;3.36;100.00;101332.41;5074655;28;20478;-35
2023/11/25 02:02:57;;;;;;;7.20;1.73;;;;;;;3.34;100.00;101327.22;5074045;28;20111;-35
2023/11/25 02:05:22;;;;;;;6.63;1.90;;;;;;;3.47;100.00;101341.91;5074013;28;20254;-35
2023/11/25 02:07:48;;;;;;;11.55;2.13;;;;;;;3.45;100.00;101327.84;5073933;28;20082;-35
2023/11/25 02:10:15;;;;;;;6.70;1.97;;;;;;;3.40;100.00;101317.69;5074789;28;20035;-35
2023/11/25 02:12:40;;;;;;;8.13;2.45;;;;;;;3.44;100.00;101334.22;5074487;28;20346;-35
2023/11/25 02:15:10;;;;;;;6.10;1.80;;;;;;;3.41;100.00;101331.88;5073858;28;20032;-35
2023/11/25 02:17:36;;;;;;;8.07;2.15;;;;;;;3.42;100.00;101321.03;5073791;28;20282;-36
2023/11/25 02:20:03;;;;;;;6.72;1.75;;;;;;;3.29;100.00;101312.72;5073551;28;20506;-35
2023/11/25 02:22:29;;;;;;;8.73;1.88;;;;;;;3.33;100.00;101322.91;5073588;28;20345;-35
2023/11/25 02:24:54;;;;;;;9.27;1.67;;;;;;;3.34;100.00;101327.22;5073781;28;20028;-35
2023/11/25 02:27:19;;;;;;;6.20;1.60;;;;;;;3.22;100.00;101320.59;5074568;28;20074;-35
2023/11/25 02:29:45;;;;;;;7.80;1.57;;;;;;;3.28;100.00;101335.13;5073754;28;20107;-35
2023/11/25 02:32:10;;;;;;;8.57;1.97;;;;;;;3.19;100.00;101325.44;5073523;28;20059;-35
2023/11/25 02:34:36;;;;;;;8.70;1.67;;;;;;;3.23;100.00;101332.13;5073282;28;20431;-35
2023/11/25 02:37:01;;;;;;;8.97;2.00;;;;;;;3.21;100.00;101340.28;5073642;28;20031;-35
2023/11/25 02:39:28;;;;;;;8.00;2.25;;;;;;;3.22;100.00;101339.31;5073603;28;20070;-35
2023/11/25 02:41:54;;;;;;;6.63;1.98;;;;;;;3.18;100.00;101337.97;5074409;28;20029;-35
2023/11/25 02:44:20;;;;;;;6.78;1.65;;;;;;;3.20;100.00;101349.31;5073520;28;20098;-35
2023/11/25 02:46:48;;;;;;;5.05;1.60;;;;;;;3.14;100.00;101344.66;5074073;28;20064;-35
2023/11/25 02:49:13;;;;;;;6.80;1.52;;;;;;;2.91;100.00;101311.63;5073411;28;20484;-35
2023/11/25 02:51:47;;;;;;;8.25;1.85;;;;;;;3.08;100.00;101346.19;5074314;28;20017;-35
2023/11/25 02:54:13;;;;;;;8.80;1.80;;;;;;;2.89;100.00;101319.81;5073405;28;20020;-34
2023/11/25 02:56:38;;;;;;;9.80;2.20;;;;;;;3.00;100.00;101337.34;5073463;28;20094;-35
2023/11/25 02:59:03;;;;;;;7.13;2.00;;;;;;;2.97;100.00;101332.31;5073647;28;20035;-35
2023/11/25 03:01:30;;;;;;;9.47;2.50;;;;;;;2.85;100.00;101313.16;5073926;28;20289;-35
2023/11/25 03:03:59;;;;;;;5.40;2.08;;;;;;;2.96;100.00;101333.31;5073000;28;20028;-35
2023/11/25 03:06:26;;;;;;;10.20;2.42;;;;;;;2.93;100.00;101339.00;5073061;28;20028;-35
2023/11/25 03:08:51;;;;;;;8.85;2.40;;;;;;;2.71;100.00;101308.47;5073000;28;20021;-35
2023/11/25 03:11:20;;;;;;;13.80;2.23;;;;;;;2.93;100.00;101347.00;5073514;28;20017;-35
2023/11/25 03:13:46;;;;;;;8.43;2.28;;;;;;;2.89;100.00;101335.84;5073196;28;20020;-35
2023/11/25 03:16:11;;;;;;;7.28;1.70;;;;;;;2.80;100.00;101329.69;5073962;28;20021;-35
2023/11/25 03:18:37;;;;;;;8.57;2.67;;;;;;;2.86;100.00;101338.84;5072930;28;20023;-34
2023/11/25 03:21:03;;;;;;;6.97;2.10;;;;;;;2.82;100.00;101335.66;5072936;28;20056;-35
2023/11/25 03:23:29;;;;;;;12.48;2.50;;;;;;;2.80;100.00;101335.00;5073091;28;20056;-35
2023/11/25 03:25:55;;;;;;;10.43;2.00;;;;;;;2.78;100.00;101338.84;5074180;28;20121;-35
2023/11/25 03:28:22;;;;;;;;;;;;;;;2.83;100.00;101331.16;5073209;28;20024;-35
2023/11/25 03:30:47;;;;;;;6.30;1.80;;;;;;;2.79;100.00;101329.84;5073340;28;20252;-35
2023/11/25 03:33:13;;;;;;;10.20;2.15;;;;;;;2.74;100.00;101316.16;5072939;28;20021;-35
2023/11/25 03:35:38;;;;;;;7.93;2.13;;;;;;;2.79;100.00;101328.00;5072914;28;20031;-35
2023/11/25 03:38:04;;;;;;;7.18;2.22;;;;;;;2.72;100.00;101321.66;5073545;28;20259;-35
2023/11/25 03:40:29;;;;;;;7.73;2.17;;;;;;;2.74;100.00;101327.69;5073003;28;20032;-35
2023/11/25 03:42:55;;;;;;;10.95;2.45;;;;;;;2.72;100.00;101316.31;5074039;28;20051;-35
2023/11/25 03:45:21;;;;;;;15.30;2.73;;;;;;;2.77;100.00;101321.16;5076799;28;20528;-35
2023/11/25 03:47:47;;;;;;;9.75;2.45;;;;;;;2.74;100.00;101326.84;5077135;28;20615;-35
2023/11/25 03:50:12;;;;;;;7.57;2.17;;;;;;;2.73;100.00;101323.34;5076940;28;20101;-35
2023/11/25 03:52:41;;;;;;;9.55;2.65;;;;;;;2.72;100.00;101315.47;5077729;28;20026;-35
2023/11/25 03:55:09;;;;;;;8.57;2.30;;;;;;;2.66;100.00;101316.16;5076526;28;20031;-34
2023/11/25 03:57:35;;;;;;;7.00;2.17;;;;;;;2.53;100.00;101293.47;5076775;28;20044;-34
2023/11/25 04:00:00;;;;;;;10.05;2.60;;;;;;;2.71;100.00;101322.66;5076118;28;20479;-34
2023/11/25 04:02:25;;;;;;;13.60;2.87;;;;;;;2.69;100.00;101324.69;5076771;28;20036;-34
2023/11/25 04:04:51;;;;;;;12.13;2.43;;;;;;;2.68;100.00;101325.66;5076356;28;20452;-34
2023/11/25 04:07:16;;;;;;;9.43;2.20;;;;;;;2.67;100.00;101326.66;5076609;28;20020;-34
2023/11/25 04:09:42;;;;;;;10.17;2.90;;;;;;;2.66;100.00;101321.50;5076010;28;20020;-34
2023/11/25 04:12:10;;;;;;;9.98;2.00;;;;;;;2.62;100.00;101315.66;5076684;28;20020;-34
2023/11/25 04:14:35;;;;;;;10.60;2.22;;;;;;;2.66;100.00;101324.19;5075883;28;20122;-34
2023/11/25 04:17:03;;;;;;;8.13;1.90;;;;;;;2.64;100.00;101310.16;5076134;28;20028;-34
2023/11/25 04:19:28;;;;;;;9.23;2.50;;;;;;;2.48;100.00;101295.78;5076611;28;20024;-34
2023/11/25 04:21:58;;;;;;;8.02;2.25;;;;;;;2.63;100.00;101321.81;5076661;28;20024;-34
2023/11/25 04:24:26;;;;;;;6.57;2.35;;;;;;;2.58;100.00;101327.66;5076290;28;20051;-35
2023/11/25 04:26:51;;;;;;;10.93;2.67;;;;;;;2.54;100.00;101326.34;5076250;28;20419;-34
2023/11/25 04:29:17;;;;;;;12.37;2.70;;;;;;;2.56;100.00;101322.50;5075910;28;20025;-34
2023/11/25 04:31:42;;;;;;;10.73;2.30;;;;;;;2.58;100.00;101331.16;5076742;28;20404;-34
2023/11/25 04:34:07;;;;;;;10.30;2.57;;;;;;;2.62;100.00;101326.34;5076389;28;20024;-34
2023/11/25 04:36:35;;;;;;;11.20;2.80;;;;;;;2.62;100.00;101331.69;5075792;28;20047;-34
2023/11/25 04:39:00;;;;;;;10.63;2.45;;;;;;;2.62;100.00;101333.50;5075413;28;20461;-34
2023/11/25 04:41:26;;;;;;;11.77;2.80;;;;;;;2.68;100.00;101328.34;5076066;28;20141;-34
2023/11/25 04:43:51;;;;;;;10.18;1.92;;;;;;;2.68;100.00;101349.69;5075709;28;20020;-34
2023/11/25 04:46:17;;;;;;;9.00;3.20;;;;;;;2.71;100.00;101364.56;5075705;28;20035;-35
2023/11/25 04:48:42;;;;;;;9.07;2.43;;;;;;;2.67;100.00;101363.22;5075743;28;20031;-35
2023/11/25 04:51:09;;;;;;;11.90;2.90;;;;;;;2.81;100.00;101374.06;5076404;28;20109;-35
2023/11/25 04:53:34;;;;;;;9.73;2.70;;;;;;;2.88;100.00;101365.38;5075598;28;20750;-35
2023/11/25 04:55:59;;;;;;;11.23;3.20;;;;;;;2.93;100.00;101363.03;5075359;28;20051;-35
2023/11/25 04:58:25;;;;;;;15.90;2.55;;;;;;;2.85;100.00;101337.19;5075642;28;20020;-35
2023/11/25 05:00:51;;;;;;;9.50;2.00;;;;;;;3.18;100.00;101370.03;5075880;28;20051;-35
2023/11/25 05:03:16;;;;;;;6.50;1.55;;;;;;;2.93;100.00;101315.81;5075290;28;20410;-35
2023/11/25 05:05:41;;;;;;;7.67;2.00;;;;;;;3.23;100.00;101356.19;5108223;28;20025;-35
2023/11/25 05:08:07;;;;;;;7.27;1.87;;;;;;;3.21;100.00;101344.81;5074714;28;20020;-35
2023/11/25 05:10:33;;;;;;;7.13;1.87;;;;;;;3.15;100.00;101340.97;5075521;28;20074;-35
2023/11/25 05:12:59;;;;;;;5.72;1.45;;;;;;;3.27;100.00;101347.66;5074756;28;20521;-35
2023/11/25 05:15:25;;;;;;;8.00;1.80;;;;;;;3.29;100.00;101345.63;5074881;28;20099;-35
2023/11/25 05:17:52;;;;;;;6.15;1.55;;;;;;;3.33;100.00;101346.13;5074651;28;20115;-35
2023/11/25 05:20:17;;;;;;;7.15;1.30;;;;;;;3.33;100.00;101344.28;5075240;28;20070;-35
2023/11/25 05:22:43;;;;;;;10.27;2.15;;;;;;;3.36;100.00;101348.44;5074857;28;20024;-35
2023/11/25 05:25:17;;;;;;;6.65;1.95;;;;;;;3.37;100.00;101355.47;5075138;28;20099;-35
2023/11/25 05:27:43;;;;;;;10.20;2.10;;;;;;;3.35;100.00;101342.25;5074846;28;20035;-35
2023/11/25 05:30:11;;;;;;;5.73;1.67;;;;;;;3.36;100.00;101337.75;5075066;28;20364;-35
2023/11/25 05:32:36;;;;;;;7.10;1.65;;;;;;;3.34;100.00;101321.06;5074656;28;20027;-35
2023/11/25 05:35:02;;;;;;;10.48;2.00;;;;;;;3.34;100.00;101345.13;5075112;28;20024;-35
2023/11/25 05:37:27;;;;;;;10.80;2.50;;;;;;;3.34;100.00;101363.81;5075080;28;20345;-35
2023/11/25 05:39:54;;;;;;;7.73;2.17;;;;;;;3.34;100.00;101355.81;5074324;28;20267;-35
2023/11/25 05:42:27;;;;;;;8.63;2.05;;;;;;;3.33;100.00;101341.59;5074460;28;20028;-35
2023/11/25 05:44:52;;;;;;;7.68;1.90;;;;;;;3.35;100.00;101336.91;5074168;28;20035;-35
2023/11/25 05:47:17;;;;;;;9.98;2.00;;;;;;;3.36;100.00;101343.91;5074965;28;20028;-35
2023/11/25 05:49:43;;;;;;;3.77;1.13;;;;;;;3.39;100.00;101348.09;5074877;28;20502;-35
2023/11/25 05:52:09;;;;;;;5.90;1.40;;;;;;;3.33;100.00;101332.75;5074890;28;20017;-35
2023/11/25 05:54:34;;;;;;;6.13;1.60;;;;;;;3.34;100.00;101335.25;5074203;28;20024;-35
2023/11/25 05:56:59;;;;;;;4.37;1.10;;;;;;;3.42;100.00;101344.28;5075141;28;20070;-35
2023/11/25 05:59:25;;;;;;;4.53;1.50;;;;;;;3.42;100.00;101338.91;5074817;28;20036;-35
2023/11/25 06:01:50;;;;;;;5.43;1.33;;;;;;;3.41;100.00;101335.38;5074441;28;20121;-35
2023/11/25 06:04:16;;;;;;;3.67;1.07;;;;;;;3.33;100.00;101306.03;5074042;28;20032;-35
2023/11/25 06:06:42;;;;;;;4.15;1.30;;;;;;;3.31;100.00;101308.84;5073282;28;20267;-35
2023/11/25 06:09:11;;;;;;;5.70;1.58;;;;;;;3.34;100.00;101319.22;5074067;28;20034;-35
2023/11/25 06:11:38;;;;;;;3.33;1.25;;;;;;;3.32;100.00;101321.22;5074059;28;20130;-35
2023/11/25 06:14:04;;;;;;;8.85;2.67;;;;;;;3.29;100.00;101310.03;5073656;28;20024;-35
2023/11/25 06:16:31;;;;;;;32.78;15.25;;;;;;;3.24;100.00;101312.41;5073849;28;20028;-35
2023/11/25 06:18:56;;;;;;;;;;;;;;;3.27;100.00;101307.56;5074266;28;20066;-35
2023/11/25 06:21:22;;;;;;;11.65;4.68;;;;;;;3.20;100.00;101314.56;5073835;28;20345;-35
2023/11/25 06:23:48;;;;;;;6.85;2.35;;;;;;;3.21;100.00;101318.91;5073564;28;20024;-35
2023/11/25 06:26:14;;;;;;;13.07;4.22;;;;;;;3.21;100.00;101316.22;5073435;28;20016;-35
2023/11/25 06:28:46;;;;;;;17.17;4.97;;;;;;;3.20;100.00;101314.56;5073968;28;20055;-35
2023/11/25 06:31:12;;;;;;;12.50;4.13;;;;;;;3.15;100.00;101303.56;5074305;28;20056;-35
2023/11/25 06:33:39;;;;;;;7.75;2.10;;;;;;;3.19;100.00;101317.44;5073657;28;20020;-35
2023/11/25 06:36:05;;;;;;;10.13;2.42;;;;;;;3.15;100.00;101324.94;5073777;28;20498;-35
2023/11/25 06:38:31;;;;;;;10.82;2.78;;;;;;;3.14;100.00;101315.25;5073578;28;20028;-35
2023/11/25 06:40:56;;;;;;;8.97;2.50;;;;;;;3.10;100.00;101316.59;5073897;28;20028;-35
2023/11/25 06:43:22;;;;;;;11.98;2.70;;;;;;;3.13;100.00;101326.97;5073201;28;20021;-35
2023/11/25 06:45:48;;;;;;;11.63;4.27;;;;;;;3.08;100.00;101313.28;5074399;28;20127;-35
2023/11/25 06:48:18;;;;;;;10.40;3.15;;;;;;;3.02;100.00;101304.09;5073496;28;20047;-35
2023/11/25 06:50:43;;;;;;;6.97;2.05;;;;;;;3.10;100.00;101308.59;5074293;28;20024;-35
2023/11/25 06:53:09;;;;;;;9.40;1.63;;;;;;;3.12;100.00;101309.25;5073782;28;20369;-35
2023/11/25 06:55:34;;;;;;;11.30;3.00;;;;;;;3.08;100.00;101298.09;5072894;28;20109;-35
2023/11/25 06:57:59;;;;;;;9.60;2.30;;;;;;;3.17;100.00;101320.25;5073425;28;20058;-35
2023/11/25 07:00:26;;;;;;;5.93;1.80;;;;;;;3.21;100.00;101324.25;5073422;28;20044;-35
2023/11/25 07:02:51;;;;;;;7.57;2.17;;;;;;;3.23;100.00;101306.22;5073345;28;20108;-35
2023/11/25 07:05:17;;;;;;;6.28;2.28;;;;;;;3.09;100.00;101262.31;5073431;28;20110;-35
2023/11/25 07:07:42;;;;;;;6.17;2.53;;;;;;;3.25;100.00;101293.50;5073292;28;20380;-35
2023/11/25 07:10:13;;;;;;;7.70;2.00;;;;;;;3.24;100.00;101285.66;5073323;28;20029;-35
2023/11/25 07:12:40;;;;;;;4.07;1.48;;;;;;;3.22;100.00;101275.16;5073493;28;20016;-35
2023/11/25 07:15:06;;;;;;;6.10;1.50;;;;;;;3.23;100.00;101290.19;5072916;28;20020;-35
2023/11/25 07:17:32;;;;;;;8.13;1.40;;;;;;;3.23;100.00;101279.50;5073761;28;20021;-35
2023/11/25 07:19:58;;;;;;;5.72;1.50;;;;;;;3.24;100.00;101286.50;5077269;28;20169;-35
2023/11/25 07:22:23;;;;;;;6.03;1.60;;;;;;;3.24;100.00;101281.16;5077537;28;20025;-36
2023/11/25 07:24:48;;;;;;;5.43;1.67;;;;;;;3.23;100.00;101284.84;5077191;28;20035;-35
2023/11/25 07:27:18;;;;;;;8.53;2.10;;;;;;;3.21;100.00;101273.47;5077716;28;20031;-35
2023/11/25 07:29:44;;;;;;;4.72;1.48;;;;;;;3.18;100.00;101270.34;5077118;28;20120;-36
2023/11/25 07:32:12;;;;;;;4.20;1.40;;;;;;;3.20;100.00;101279.00;5077807;28;20020;-36
2023/11/25 07:34:38;;;;;;;6.32;1.75;;;;;;;3.18;100.00;101281.84;5076890;28;20024;-36
2023/11/25 07:37:04;;;;;;;5.53;1.40;;;;;;;3.23;100.00;101294.69;5076903;28;20020;-36
2023/11/25 07:39:29;;;;;;;6.60;1.88;;;;;;;3.23;100.00;101300.88;5077126;28;20024;-36
2023/11/25 07:41:57;;;;;;;5.15;2.03;;;;;;;3.23;100.00;101303.56;5076913;28;20063;-36
2023/11/25 07:44:32;;;;;;;6.20;1.95;;;;;;;3.21;100.00;101302.03;5075983;28;20090;-36
2023/11/25 07:46:58;;;;;;;2.42;1.10;;;;;;;3.30;100.00;101307.19;5076036;28;20035;-36
2023/11/25 07:49:24;;;;;;;;;;;;;;;3.38;100.00;101302.84;5077068;28;20376;-36
2023/11/25 07:51:49;;;;;;;6.22;1.27;;;;;;;3.37;100.00;101288.63;5076396;28;19904;-36
2023/11/25 07:54:15;;;;;;;6.23;1.30;;;;;;;3.41;100.00;101289.09;5076883;28;20433;-36
2023/11/25 07:56:41;;;;;;;7.50;1.80;;;;;;;3.47;100.00;101296.47;5076696;28;20045;-36
2023/11/25 07:59:07;;;;;;;4.53;1.20;;;;;;;3.49;100.00;101286.41;5076861;28;20028;-36
2023/11/25 08:01:33;;;;;;;6.25;1.40;;;;;;;3.49;100.00;101275.72;5076478;28;20036;-36
2023/11/25 08:03:59;;;;;;;3.38;1.00;;;;;;;3.52;100.00;101284.22;5076131;28;20031;-36
2023/11/25 08:06:25;;;;;;;4.18;1.10;;;;;;;3.52;100.00;101278.88;5076416;28;20039;-36
2023/11/25 08:08:54;;;;;;;5.10;1.13;;;;;;;3.41;100.00;101257.03;5076625;28;20024;-36
2023/11/25 08:11:23;;;;;;;4.35;1.42;;;;;;;3.51;100.00;101279.88;5077123;28;20021;-36
2023/11/25 08:13:49;;;;;;;3.42;1.02;;;;;;;3.51;100.00;101279.03;5076820;28;20131;-36
2023/11/25 08:16:15;;;;;;;5.60;1.05;;;;;;;3.52;100.00;101286.06;5076471;28;20024;-36
2023/11/25 08:18:41;;;;;;;5.22;1.08;;;;;;;3.52;100.00;101280.72;5076184;28;20513;-36
2023/11/25 08:21:07;;;;;;;5.20;1.30;;;;;;;3.52;100.00;101286.91;5076563;28;20374;-36
2023/11/25 08:23:32;;;;;;;4.95;1.38;;;;;;;3.51;100.00;101298.59;5075769;28;20040;-36
2023/11/25 08:25:57;;;;;;;4.28;1.25;;;;;;;3.52;100.00;101291.41;5076392;28;20028;-36
2023/11/25 08:28:25;;;;;;;5.23;1.10;;;;;;;3.58;100.00;101288.03;5075611;28;20415;-36
2023/11/25 08:30:50;;;;;;;5.03;1.25;;;;;;;3.67;100.00;101284.31;5076743;28;20012;-36
2023/11/25 08:33:15;;;;;;;4.93;1.27;;;;;;;3.77;100.00;101274.25;5076460;28;20131;-36
2023/11/25 08:35:41;;;;;;;5.30;1.67;;;;;;;3.87;100.00;101277.53;5076146;28;20426;-36
2023/11/25 08:38:06;;;;;;;5.43;1.50;;;;;;;3.94;100.00;101276.81;5076093;28;20027;-36
2023/11/25 08:40:32;;;;;;;4.30;1.60;;;;;;;3.96;100.00;101275.63;5076201;28;20289;-36
2023/11/25 08:43:08;;;;;;;5.75;1.90;;;;;;;3.97;100.00;101276.47;5075775;28;20024;-36
2023/11/25 08:45:34;;;;;;;6.95;2.33;;;;;;;3.99;100.00;101279.78;5076636;28;20021;-36
2023/11/25 08:47:59;;;;;;;5.15;1.90;;;;;;;4.03;100.00;101268.53;5075736;28;20025;-36
2023/11/25 08:50:25;;;;;;;10.27;2.20;;;;;;;4.15;100.00;101274.34;5075728;28;20031;-36
2023/11/25 08:52:50;;;;;;;6.20;1.40;;;;;;;4.27;100.00;101277.41;5076129;28;20054;-36
2023/11/25 08:55:18;;;;;;;5.50;1.33;;;;;;;4.38;100.00;101296.56;5075806;28;20020;-36
2023/11/25 08:57:43;;;;;;;7.70;1.70;;;;;;;4.37;100.00;101294.91;5074563;28;20048;-36
2023/11/25 09:00:16;;;;;;;3.73;1.13;;;;;;;4.36;100.00;101295.09;5075802;28;20104;-36
2023/11/25 09:02:43;;;;;;;4.35;1.38;;;;;;;4.35;100.00;101280.03;5075177;28;20263;-36
2023/11/25 09:05:08;;;;;;;4.45;1.63;;;;;;;4.33;100.00;101282.88;5075396;28;20016;-36
2023/11/25 09:07:34;;;;;;;7.35;1.95;;;;;;;4.22;100.00;101272.59;5075346;28;20036;-36
2023/11/25 09:09:59;;;;;;;6.43;1.53;;;;;;;4.34;100.00;101297.97;5076065;28;20081;-36
2023/11/25 09:12:25;;;;;;;3.90;1.50;;;;;;;4.36;100.00;101301.28;5075310;28;20025;-36
2023/11/25 09:14:50;;;;;;;7.90;2.00;;;;;;;4.36;100.00;101298.59;5075204;28;20465;-36
2023/11/25 09:17:15;;;;;;;4.00;1.30;;;;;;;4.44;100.00;101295.03;5075029;28;20031;-36
2023/11/25 09:19:42;;;;;;;5.37;1.57;;;;;;;4.57;100.00;101294.41;5074888;28;20024;-36
2023/11/25 09:22:08;;;;;;;5.28;1.92;;;;;;;4.73;100.00;101288.88;5075797;28;20099;-36
2023/11/25 09:24:33;;;;;;;4.85;1.60;;;;;;;4.86;100.00;101299.81;5075489;28;20158;-36
2023/11/25 09:26:58;;;;;;;7.47;2.00;;;;;;;4.89;100.00;101299.47;5074988;28;20037;-36
2023/11/25 09:29:24;;;;;;;3.93;1.33;;;;;;;4.88;100.00;101300.50;5074862;28;20036;-36
2023/11/25 09:31:49;;;;;;;3.97;1.33;;;;;;;4.88;100.00;101310.34;5075341;28;20082;-36
2023/11/25 09:34:15;;;;;;;6.10;1.60;;;;;;;4.86;100.00;101313.22;5074994;28;20053;-36
2023/11/25 09:36:40;;;;;;;5.10;1.40;;;;;;;4.90;100.00;101305.66;5074652;28;20334;-36
2023/11/25 09:39:09;;;;;;;7.47;1.70;;;;;;;4.93;100.00;101308.00;5074641;28;20024;-36
2023/11/25 09:41:35;;;;;;;5.65;1.85;;;;;;;4.96;100.00;101301.41;5074337;28;20376;-36
2023/11/25 09:44:05;;;;;;;7.93;2.20;;;;;;;4.90;100.00;101295.78;5074567;28;20032;-36
2023/11/25 09:46:32;;;;;;;7.18;1.80;;;;;;;4.95;100.00;101305.13;5074238;28;20051;-36
2023/11/25 09:48:57;;;;;;;9.75;2.33;;;;;;;4.99;100.00;101309.09;5073240;28;20383;-36
2023/11/25 09:51:24;;;;;;;5.53;1.58;;;;;;;4.98;100.00;101294.00;5073568;28;20028;-36
2023/11/25 09:53:57;;;;;;;6.13;1.60;;;;;;;4.95;100.00;101294.41;5074300;28;20111;-36
2023/11/25 09:56:22;;;;;;;6.45;1.17;;;;;;;5.01;100.00;101294.50;5074920;28;20110;-33
2023/11/25 09:58:49;;;;;;;3.83;1.08;;;;;;;5.08;100.00;101295.44;5073982;28;20021;-35
2023/11/25 10:01:14;;;;;;;5.10;1.08;;;;;;;5.10;100.00;101293.38;5074530;28;20072;-34
2023/11/25 10:03:45;;;;;;;3.25;1.20;;;;;;;5.11;100.00;101297.72;5073883;28;20095;-34
2023/11/25 10:06:11;;;;;;;4.00;1.30;;;;;;;5.08;100.00;101300.78;5073864;28;20112;-34
2023/11/25 10:08:36;;;;;;;6.18;1.15;;;;;;;5.07;100.00;101304.47;5074059;28;20026;-34
2023/11/25 10:11:07;;;;;;;4.07;0.83;;;;;;;5.11;100.00;101292.38;5074920;28;20035;-35
2023/11/25 10:13:40;;;;;;;4.43;0.93;;;;;;;5.24;100.00;101293.59;5074277;28;20479;-35
2023/11/25 10:16:07;;;;;;;6.82;1.67;;;;;;;5.33;100.00;101293.31;5073909;28;20393;-35
2023/11/25 10:18:36;;;;;;;4.15;0.88;;;;;;;5.36;100.00;101305.50;5073912;28;20020;-35
2023/11/25 10:21:05;;;;;;;2.97;1.02;;;;;;;5.29;100.00;101300.06;5074241;28;20402;-35
2023/11/25 10:23:31;;;;;;;4.68;1.23;;;;;;;5.23;100.00;101279.34;5073570;28;20021;-35
2023/11/25 10:25:59;;;;;;;4.15;1.60;;;;;;;5.27;100.00;101283.34;5073963;28;20021;-35
2023/11/25 10:28:30;;;;;;;3.13;0.93;;;;;;;5.21;100.00;101262.59;5073517;28;20024;-35
2023/11/25 10:31:00;;;;;;;3.72;1.10;;;;;;;5.25;100.00;101277.31;5074135;28;20021;-35
2023/11/25 10:33:29;;;;;;;5.70;2.17;;;;;;;5.20;100.00;101274.34;5074007;28;20035;-35
2023/11/25 10:35:55;;;;;;;3.17;0.98;;;;;;;5.18;100.00;101263.00;5074562;28;20382;-35
2023/11/25 10:38:22;;;;;;;3.92;1.30;;;;;;;5.15;100.00;101255.31;5073961;28;20437;-35
2023/11/25 10:40:51;;;;;;;5.22;1.35;;;;;;;5.30;100.00;101266.84;5074209;28;20436;-35
2023/11/25 10:43:18;;;;;;;4.43;1.38;;;;;;;5.42;100.00;101261.88;5073584;28;20020;-35
2023/11/25 10:45:43;;;;;;;4.43;1.80;;;;;;;5.47;100.00;101259.44;5073866;28;20012;-35
2023/11/25 10:48:11;;;;;;;4.85;1.30;;;;;;;5.51;100.00;101260.72;5073865;28;20028;-35
2023/11/25 10:50:36;;;;;;;3.58;1.20;;;;;;;5.59;100.00;101265.16;5073317;28;20107;-35
2023/11/25 10:53:05;;;;;;;4.50;1.23;;;;;;;5.66;100.00;101266.06;5073410;28;20067;-35
2023/11/25 10:55:32;;;;;;;6.45;1.60;;;;;;;5.75;100.00;101272.97;5073448;28;20048;-35
2023/11/25 10:58:00;;;;;;;6.80;2.05;;;;;;;5.83;100.00;101255.94;5074075;28;20033;-35
2023/11/25 11:00:28;;;;;;;4.68;1.67;;;;;;;5.98;100.00;101266.66;5073528;28;20036;-35
2023/11/25 11:02:57;;;;;;;5.53;2.20;;;;;;;6.08;100.00;101256.44;5073400;28;20066;-34
2023/11/25 11:05:35;;;;;;;5.13;1.73;;;;;;;6.21;100.00;101253.06;5073747;28;20020;-36
2023/11/25 11:08:11;;;;;;;4.35;1.40;;;;;;;6.26;100.00;101240.72;5073405;28;20031;-36
2023/11/25 11:10:47;;;;;;;5.93;1.33;;;;;;;6.40;100.00;101245.19;5073677;28;20334;-36
2023/11/25 11:13:14;;;;;;;6.90;2.20;;;;;;;6.40;100.00;101245.19;5073403;28;20410;-36
2023/11/25 11:15:42;;;;;;;6.47;1.80;;;;;;;6.38;100.00;101249.91;5074156;28;20174;-36
2023/11/25 11:18:23;;;;;;;7.07;1.83;;;;;;;6.34;100.00;101245.94;5073005;28;20020;-34
2023/11/25 11:20:51;;;;;;;9.23;1.73;;;;;;;6.28;100.00;101246.72;5073861;28;20020;-36